createdAt,value
2022-09-06T00:01:34.318Z,21.23
2022-09-06T00:04:00.711Z,21.25
2022-09-06T00:06:27.112Z,21.24
2022-09-06T00:08:53.497Z,21.16
2022-09-06T00:11:20.135Z,21.20
2022-09-06T00:13:47.360Z,21.18
2022-09-06T00:16:26.346Z,21.14
2022-09-06T00:18:56.141Z,21.11
2022-09-06T00:21:28.044Z,20.97
2022-09-06T00:23:54.855Z,21.05
2022-09-06T00:26:22.931Z,20.95
2022-09-06T00:28:49.877Z,20.77
2022-09-06T00:31:21.703Z,20.25
2022-09-06T00:33:48.701Z,20.42
2022-09-06T00:36:15.557Z,20.33
2022-09-06T00:38:42.538Z,20.22
2022-09-06T00:41:11.334Z,20.03
2022-09-06T00:43:38.449Z,19.80
2022-09-06T00:46:06.745Z,19.56
2022-09-06T00:48:34.113Z,19.40
2022-09-06T00:51:03.992Z,19.40
2022-09-06T00:53:32.019Z,19.27
2022-09-06T00:55:59.021Z,19.35
2022-09-06T00:58:26.919Z,19.24
2022-09-06T01:00:53.501Z,19.18
2022-09-06T01:03:22.980Z,19.11
2022-09-06T01:06:17.400Z,19.03
2022-09-06T01:09:02.782Z,19.03
2022-09-06T01:11:48.337Z,19.00
2022-09-06T01:14:45.681Z,18.98
2022-09-06T01:17:41.881Z,18.89
2022-09-06T01:20:29.384Z,18.90
2022-09-06T01:23:34.760Z,18.94
2022-09-06T01:26:22.969Z,18.91
2022-09-06T01:28:51.672Z,18.90
2022-09-06T01:31:46.590Z,18.84
2022-09-06T01:34:26.478Z,18.85
2022-09-06T01:37:16.752Z,18.79
2022-09-06T01:39:43.317Z,18.76
2022-09-06T01:42:14.538Z,18.73
2022-09-06T01:44:47.400Z,18.77
2022-09-06T01:47:35.356Z,18.83
2022-09-06T01:50:23.953Z,18.80
2022-09-06T01:53:24.389Z,18.77
2022-09-06T01:56:21.661Z,18.70
2022-09-06T01:59:01.677Z,18.66
2022-09-06T02:01:51.765Z,18.57
2022-09-06T02:04:26.783Z,18.57
2022-09-06T02:07:00.123Z,18.50
2022-09-06T02:09:31.153Z,18.34
2022-09-06T02:12:01.058Z,18.43
2022-09-06T02:14:36.755Z,18.42
2022-09-06T02:17:05.730Z,18.37
2022-09-06T02:19:54.901Z,18.33
2022-09-06T02:22:26.028Z,18.29
2022-09-06T02:24:55.237Z,18.24
2022-09-06T02:27:21.716Z,18.21
2022-09-06T02:29:48.328Z,18.24
2022-09-06T02:32:20.407Z,18.25
2022-09-06T02:34:47.513Z,18.24
2022-09-06T02:37:16.348Z,18.21
2022-09-06T02:39:42.822Z,18.10
2022-09-06T02:42:11.759Z,17.92
2022-09-06T02:44:38.277Z,18.02
2022-09-06T02:47:05.667Z,18.10
2022-09-06T02:49:32.279Z,18.13
2022-09-06T02:51:58.753Z,18.17
2022-09-06T02:54:25.172Z,18.22
2022-09-06T02:56:52.368Z,18.22
2022-09-06T02:59:19.061Z,18.18
2022-09-06T03:01:45.524Z,18.12
2022-09-06T03:04:12.201Z,18.07
2022-09-06T03:06:38.624Z,18.00
2022-09-06T03:09:04.991Z,17.96
2022-09-06T03:11:31.370Z,17.90
2022-09-06T03:13:57.743Z,17.88
2022-09-06T03:16:24.145Z,17.86
2022-09-06T03:18:50.592Z,17.83
2022-09-06T03:21:16.948Z,17.86
2022-09-06T03:23:43.389Z,17.88
2022-09-06T03:26:09.742Z,17.85
2022-09-06T03:28:36.169Z,17.90
2022-09-06T03:31:03.562Z,17.93
2022-09-06T03:33:30.928Z,17.94
2022-09-06T03:36:00.405Z,17.93
2022-09-06T03:38:28.347Z,17.94
2022-09-06T03:40:55.471Z,17.94
2022-09-06T03:43:23.898Z,17.92
2022-09-06T03:45:53.670Z,17.90
2022-09-06T03:48:21.569Z,17.88
2022-09-06T03:50:54.198Z,17.86
2022-09-06T03:53:21.661Z,17.78
2022-09-06T03:55:49.985Z,17.85
2022-09-06T03:58:18.588Z,17.79
2022-09-06T04:00:45.329Z,17.76
2022-09-06T04:03:12.188Z,17.63
2022-09-06T04:05:38.592Z,17.68
2022-09-06T04:08:05.884Z,17.61
2022-09-06T04:10:32.940Z,17.56
2022-09-06T04:12:59.273Z,17.48
2022-09-06T04:15:25.617Z,17.42
2022-09-06T04:17:52.048Z,17.32
2022-09-06T04:20:18.581Z,17.22
2022-09-06T04:22:44.929Z,17.16
2022-09-06T04:25:11.317Z,17.11
2022-09-06T04:27:37.714Z,17.08
2022-09-06T04:30:04.549Z,17.04
2022-09-06T04:32:32.582Z,17.02
2022-09-06T04:34:58.950Z,16.98
2022-09-06T04:37:25.304Z,16.94
2022-09-06T04:39:51.729Z,16.91
2022-09-06T04:42:18.158Z,16.90
2022-09-06T04:44:44.512Z,16.85
2022-09-06T04:47:15.666Z,16.81
2022-09-06T04:49:42.683Z,16.79
2022-09-06T04:52:09.998Z,16.79
2022-09-06T04:54:36.497Z,16.62
2022-09-06T04:57:03.156Z,16.72
2022-09-06T04:59:29.585Z,16.69
2022-09-06T05:01:56.021Z,16.68
2022-09-06T05:04:22.499Z,16.64
2022-09-06T05:06:49.223Z,16.63
2022-09-06T05:09:15.795Z,16.62
2022-09-06T05:11:42.200Z,16.59
2022-09-06T05:14:08.577Z,16.59
2022-09-06T05:16:35.107Z,16.58
2022-09-06T05:19:01.545Z,16.60
2022-09-06T05:21:27.864Z,16.58
2022-09-06T05:23:58.377Z,16.59
2022-09-06T05:26:25.122Z,16.61
2022-09-06T05:28:51.547Z,16.60
2022-09-06T05:31:27.201Z,16.60
2022-09-06T05:33:54.707Z,16.50
2022-09-06T05:36:23.356Z,16.58
2022-09-06T05:38:54.239Z,16.61
2022-09-06T05:41:21.833Z,16.56
2022-09-06T05:43:48.565Z,16.66
2022-09-06T05:46:15.990Z,16.62
2022-09-06T05:48:42.838Z,16.61
2022-09-06T05:51:13.325Z,16.68
2022-09-06T05:53:42.948Z,16.71
2022-09-06T05:56:11.048Z,16.67
2022-09-06T05:58:38.839Z,16.80
2022-09-06T06:01:22.624Z,16.84
2022-09-06T06:03:53.991Z,16.81
2022-09-06T06:06:21.829Z,16.88
2022-09-06T06:08:48.424Z,16.89
2022-09-06T06:11:15.235Z,16.99
2022-09-06T06:13:43.179Z,16.88
2022-09-06T06:16:12.162Z,17.04
2022-09-06T06:18:39.197Z,17.06
2022-09-06T06:21:16.027Z,17.10
2022-09-06T06:23:44.627Z,17.20
2022-09-06T06:26:12.669Z,17.23
2022-09-06T06:28:39.893Z,17.28
2022-09-06T06:31:08.787Z,17.32
2022-09-06T06:33:36.335Z,17.36
2022-09-06T06:36:13.266Z,17.41
2022-09-06T06:38:42.260Z,17.46
2022-09-06T06:41:10.724Z,17.50
2022-09-06T06:43:37.874Z,17.55
2022-09-06T06:46:05.900Z,17.63
2022-09-06T06:48:32.618Z,17.64
2022-09-06T06:50:59.025Z,17.69
2022-09-06T06:53:25.520Z,17.77
2022-09-06T06:55:51.951Z,17.84
2022-09-06T06:58:18.861Z,17.94
2022-09-06T07:00:45.582Z,17.96
2022-09-06T07:03:12.622Z,18.04
2022-09-06T07:08:26.807Z,18.06
2022-09-06T07:10:53.226Z,18.28
2022-09-06T07:13:19.653Z,18.26
2022-09-06T07:15:46.012Z,18.46
2022-09-06T07:18:15.794Z,18.46
2022-09-06T07:26:17.015Z,18.76
2022-09-06T07:28:43.632Z,18.83
2022-09-06T07:33:57.764Z,19.01
2022-09-06T07:36:24.145Z,19.15
2022-09-06T07:38:50.842Z,19.26
2022-09-06T07:41:18.339Z,19.38
2022-09-06T07:43:45.665Z,19.51
2022-09-06T07:46:15.146Z,19.64
2022-09-06T07:48:43.088Z,19.72
2022-09-06T07:51:16.201Z,19.84
2022-09-06T07:53:45.033Z,19.97
2022-09-06T07:56:12.766Z,20.10
2022-09-06T07:58:40.589Z,20.25
2022-09-06T08:01:30.549Z,20.38
2022-09-06T08:04:08.549Z,20.49
2022-09-06T08:09:25.021Z,20.75
2022-09-06T08:11:52.569Z,20.87
2022-09-06T08:14:18.996Z,20.97
2022-09-06T08:16:45.368Z,21.09
2022-09-06T08:19:12.368Z,21.20
2022-09-06T08:21:39.124Z,21.32
2022-09-06T08:24:07.854Z,21.40
2022-09-06T08:26:36.510Z,21.48
2022-09-06T08:29:06.716Z,21.60
2022-09-06T08:31:35.013Z,21.71
2022-09-06T08:34:01.561Z,21.82
2022-09-06T08:36:31.340Z,21.96
2022-09-06T08:39:02.086Z,22.11
2022-09-06T08:41:45.504Z,22.33
2022-09-06T08:47:07.370Z,22.80
2022-09-06T08:49:37.549Z,23.09
2022-09-06T08:52:41.765Z,23.37
2022-09-06T08:55:57.957Z,23.75
2022-09-06T08:59:02.154Z,24.08
2022-09-06T09:01:52.247Z,24.36
2022-09-06T09:04:24.388Z,24.47
2022-09-06T09:06:57.937Z,24.91
2022-09-06T09:09:28.009Z,25.16
2022-09-06T09:11:55.888Z,25.35
2022-09-06T09:14:29.350Z,25.54
2022-09-06T09:17:03.329Z,25.78
2022-09-06T09:19:33.357Z,26.05
2022-09-06T09:21:59.721Z,26.35
2022-09-06T09:24:26.107Z,26.68
2022-09-06T09:27:08.664Z,27.06
2022-09-06T09:32:44.730Z,27.78
2022-09-06T09:35:29.946Z,28.00
2022-09-06T09:38:20.654Z,28.37
2022-09-06T09:40:54.268Z,28.90
2022-09-06T09:43:22.346Z,29.18
2022-09-06T09:46:24.055Z,29.77
2022-09-06T09:49:07.377Z,30.29
2022-09-06T09:51:44.216Z,30.75
2022-09-06T09:54:12.904Z,31.09
2022-09-06T09:56:52.880Z,31.37
2022-09-06T09:59:34.622Z,31.52
2022-09-06T10:02:03.725Z,31.94
2022-09-06T10:07:14.850Z,32.65
2022-09-06T10:09:43.862Z,33.13
2022-09-06T10:12:17.528Z,33.26
2022-09-06T10:14:45.976Z,33.62
2022-09-06T10:17:37.177Z,34.06
2022-09-06T10:20:08.447Z,34.36
2022-09-06T10:23:04.636Z,34.86
2022-09-06T10:25:37.901Z,35.10
2022-09-06T10:28:36.316Z,35.18
2022-09-06T10:31:36.319Z,34.99
2022-09-06T10:34:11.614Z,35.08
2022-09-06T10:36:40.819Z,35.21
2022-09-06T10:39:45.396Z,35.70
2022-09-06T10:42:39.044Z,36.05
2022-09-06T10:45:08.072Z,36.17
2022-09-06T10:47:52.945Z,36.17
2022-09-06T10:50:19.864Z,36.06
2022-09-06T10:52:48.576Z,36.30
2022-09-06T10:55:18.426Z,36.18
2022-09-06T11:00:47.254Z,36.42
2022-09-06T11:06:12.695Z,36.64
2022-09-06T11:08:49.033Z,36.78
2022-09-06T11:11:23.084Z,36.76
2022-09-06T11:13:49.537Z,36.88
2022-09-06T11:16:25.248Z,36.83
2022-09-06T11:19:04.609Z,36.66
2022-09-06T11:21:50.548Z,36.43
2022-09-06T11:24:36.673Z,36.31
2022-09-06T11:27:12.505Z,36.37
2022-09-06T11:29:45.113Z,36.43
2022-09-06T11:32:30.386Z,36.43
2022-09-06T11:34:59.264Z,36.46
2022-09-06T11:37:30.930Z,36.20
2022-09-06T11:40:28.730Z,36.13
2022-09-06T11:42:55.411Z,36.19
2022-09-06T11:45:44.402Z,36.07
2022-09-06T11:48:35.237Z,35.67
2022-09-06T11:51:11.141Z,35.78
2022-09-06T11:53:49.521Z,35.76
2022-09-06T11:56:33.203Z,35.71
2022-09-06T11:59:28.700Z,35.81
2022-09-06T12:01:54.994Z,35.76
2022-09-06T12:04:23.121Z,35.70
2022-09-06T12:07:11.577Z,35.03
2022-09-06T12:09:40.878Z,34.80
2022-09-06T12:12:09.958Z,34.36
2022-09-06T12:14:40.709Z,34.27
2022-09-06T12:17:07.535Z,34.60
2022-09-06T12:19:44.561Z,34.87
2022-09-06T12:22:41.273Z,35.01
2022-09-06T12:25:41.003Z,35.06
2022-09-06T12:28:19.809Z,35.12
2022-09-06T12:30:47.958Z,35.23
2022-09-06T12:33:22.056Z,35.13
2022-09-06T12:38:25.707Z,34.70
2022-09-06T12:40:58.121Z,34.63
2022-09-06T12:43:25.069Z,34.43
2022-09-06T12:45:52.819Z,34.13
2022-09-06T12:48:30.835Z,33.80
2022-09-06T12:51:06.055Z,33.74
2022-09-06T12:53:34.367Z,33.61
2022-09-06T12:56:05.371Z,33.33
2022-09-06T12:58:32.421Z,33.20
2022-09-06T13:01:09.024Z,32.93
2022-09-06T13:03:55.284Z,33.31
2022-09-06T13:06:27.241Z,33.50
2022-09-06T13:08:57.105Z,33.71
2022-09-06T13:11:28.064Z,33.49
2022-09-06T13:13:55.252Z,33.35
2022-09-06T13:16:27.259Z,33.23
2022-09-06T13:18:54.197Z,33.37
2022-09-06T13:21:32.836Z,33.58
2022-09-06T13:23:59.687Z,33.65
2022-09-06T13:26:38.643Z,33.54
2022-09-06T13:29:17.151Z,33.70
2022-09-06T13:31:48.406Z,33.78
2022-09-06T13:34:31.652Z,33.72
2022-09-06T13:37:05.290Z,33.65
2022-09-06T13:39:34.892Z,33.51
2022-09-06T13:42:07.396Z,33.39
2022-09-06T13:44:36.097Z,33.28
2022-09-06T13:47:03.364Z,33.15
2022-09-06T13:49:30.337Z,33.05
2022-09-06T13:52:02.257Z,32.94
2022-09-06T13:54:30.120Z,32.78
2022-09-06T13:56:56.837Z,32.71
2022-09-06T13:59:24.673Z,32.47
2022-09-06T14:02:12.930Z,32.64
2022-09-06T14:04:39.320Z,32.61
2022-09-06T14:07:05.759Z,32.66
2022-09-06T14:09:32.610Z,32.64
2022-09-06T14:11:59.296Z,32.52
2022-09-06T14:14:25.723Z,32.51
2022-09-06T14:16:52.820Z,32.52
2022-09-06T14:19:19.311Z,32.40
2022-09-06T14:21:45.709Z,32.33
2022-09-06T14:24:12.289Z,32.06
2022-09-06T14:26:38.750Z,31.91
2022-09-06T14:29:05.309Z,31.91
2022-09-06T14:31:34.671Z,31.76
2022-09-06T14:34:02.252Z,31.49
2022-09-06T14:36:30.329Z,31.37
2022-09-06T14:38:58.360Z,31.61
2022-09-06T14:41:25.692Z,31.80
2022-09-06T14:43:55.013Z,31.72
2022-09-06T14:46:24.178Z,31.29
2022-09-06T14:49:04.430Z,31.19
2022-09-06T14:51:30.885Z,31.05
2022-09-06T14:54:01.981Z,30.97
2022-09-06T14:56:28.451Z,30.93
2022-09-06T14:58:57.191Z,30.88
2022-09-06T15:01:31.039Z,30.78
2022-09-06T15:04:05.068Z,30.81
2022-09-06T15:06:33.589Z,30.81
2022-09-06T15:09:00.421Z,30.56
2022-09-06T15:11:38.515Z,30.70
2022-09-06T15:14:26.946Z,30.82
2022-09-06T15:16:56.621Z,30.47
2022-09-06T15:19:24.562Z,30.37
2022-09-06T15:21:50.958Z,30.42
2022-09-06T15:24:17.424Z,30.43
2022-09-06T15:26:43.875Z,30.38
2022-09-06T15:29:11.710Z,30.46
2022-09-06T15:31:38.712Z,30.60
2022-09-06T15:34:05.996Z,30.23
2022-09-06T15:36:33.270Z,30.52
2022-09-06T15:39:01.056Z,30.44
2022-09-06T15:41:32.289Z,30.26
2022-09-06T15:44:01.474Z,30.31
2022-09-06T15:46:48.150Z,30.36
2022-09-06T15:49:18.227Z,30.19
2022-09-06T15:51:44.947Z,30.01
2022-09-06T15:54:13.902Z,29.87
2022-09-06T15:56:41.379Z,29.92
2022-09-06T15:59:08.126Z,29.86
2022-09-06T16:01:35.113Z,29.80
2022-09-06T16:04:05.954Z,29.91
2022-09-06T16:06:39.461Z,29.87
2022-09-06T16:09:09.261Z,29.99
2022-09-06T16:11:36.731Z,29.95
2022-09-06T16:14:09.514Z,29.91
2022-09-06T16:16:36.482Z,29.88
2022-09-06T16:19:03.636Z,29.91
2022-09-06T16:21:32.356Z,29.81
2022-09-06T16:24:01.333Z,29.71
2022-09-06T16:26:32.101Z,29.67
2022-09-06T16:28:58.954Z,29.61
2022-09-06T16:31:26.905Z,29.55
2022-09-06T16:33:53.773Z,29.50
2022-09-06T16:36:21.669Z,29.39
2022-09-06T16:38:48.736Z,29.35
2022-09-06T16:41:21.160Z,29.27
2022-09-06T16:43:52.525Z,29.33
2022-09-06T16:46:20.895Z,29.33
2022-09-06T16:48:55.886Z,29.29
2022-09-06T16:51:24.570Z,29.21
2022-09-06T16:53:52.064Z,29.15
2022-09-06T16:56:21.437Z,29.05
2022-09-06T16:58:54.320Z,28.90
2022-09-06T17:01:21.507Z,28.74
2022-09-06T17:03:48.070Z,28.54
2022-09-06T17:06:14.553Z,28.38
2022-09-06T17:08:41.024Z,28.21
2022-09-06T17:11:14.665Z,28.05
2022-09-06T17:13:42.169Z,27.88
2022-09-06T17:16:27.426Z,27.75
2022-09-06T17:18:54.206Z,27.61
2022-09-06T17:21:22.342Z,27.52
2022-09-06T17:23:49.909Z,27.45
2022-09-06T17:26:21.089Z,27.29
2022-09-06T17:28:49.307Z,27.31
2022-09-06T17:31:19.020Z,27.17
2022-09-06T17:33:48.351Z,27.18
2022-09-06T17:36:18.166Z,27.17
2022-09-06T17:38:51.060Z,27.06
2022-09-06T17:41:28.208Z,27.02
2022-09-06T17:43:55.310Z,26.93
2022-09-06T17:46:27.906Z,26.88
2022-09-06T17:48:56.128Z,26.82
2022-09-06T17:51:23.116Z,26.74
2022-09-06T17:53:49.573Z,26.70
2022-09-06T17:56:17.803Z,26.65
2022-09-06T17:58:52.876Z,26.58
2022-09-06T18:01:19.855Z,26.50
2022-09-06T18:03:47.093Z,26.41
2022-09-06T18:06:15.717Z,26.24
2022-09-06T18:08:43.889Z,26.22
2022-09-06T18:11:22.563Z,26.10
2022-09-06T18:13:58.895Z,25.98
2022-09-06T18:16:26.555Z,25.86
2022-09-06T18:18:56.059Z,25.74
2022-09-06T18:21:23.674Z,25.70
2022-09-06T18:23:50.873Z,25.57
2022-09-06T18:26:18.044Z,25.51
2022-09-06T18:28:44.832Z,25.41
2022-09-06T18:31:16.322Z,25.26
2022-09-06T18:33:43.684Z,25.21
2022-09-06T18:36:12.992Z,25.08
2022-09-06T18:38:40.376Z,25.14
2022-09-06T18:41:08.604Z,25.18
2022-09-06T18:43:40.349Z,25.19
2022-09-06T18:46:09.873Z,25.19
2022-09-06T18:48:37.377Z,25.13
2022-09-06T18:51:14.984Z,25.04
2022-09-06T18:53:44.820Z,25.13
2022-09-06T18:56:13.545Z,25.07
2022-09-06T18:58:41.660Z,25.01
2022-09-06T19:01:14.085Z,24.83
2022-09-06T19:03:42.023Z,24.88
2022-09-06T19:06:18.082Z,24.90
2022-09-06T19:08:46.655Z,24.87
2022-09-06T19:11:17.119Z,24.87
2022-09-06T19:13:45.587Z,24.89
2022-09-06T19:16:13.927Z,24.89
2022-09-06T19:18:41.055Z,24.76
2022-09-06T19:21:16.915Z,24.81
2022-09-06T19:23:48.420Z,24.84
2022-09-06T19:26:20.063Z,24.80
2022-09-06T19:28:51.830Z,24.87
2022-09-06T19:31:19.181Z,24.88
2022-09-06T19:33:48.073Z,24.84
2022-09-06T19:36:15.781Z,24.81
2022-09-06T19:39:01.907Z,24.70
2022-09-06T19:41:31.032Z,24.70
2022-09-06T19:43:58.851Z,24.66
2022-09-06T19:46:26.777Z,24.61
2022-09-06T19:48:55.854Z,24.54
2022-09-06T19:51:23.307Z,24.42
2022-09-06T19:53:57.369Z,24.45
2022-09-06T19:56:26.457Z,24.36
2022-09-06T19:59:00.876Z,24.42
2022-09-06T20:01:29.550Z,24.40
2022-09-06T20:03:56.314Z,24.41
2022-09-06T20:06:22.708Z,24.38
2022-09-06T20:08:51.599Z,24.33
2022-09-06T20:11:19.662Z,24.28
2022-09-06T20:13:46.386Z,24.22
2022-09-06T20:16:13.814Z,24.05
2022-09-06T20:18:40.499Z,24.15
2022-09-06T20:21:07.496Z,24.08
2022-09-06T20:23:34.909Z,24.06
2022-09-06T20:26:02.766Z,23.98
2022-09-06T20:28:29.584Z,23.98
2022-09-06T20:31:07.709Z,23.93
2022-09-06T20:33:34.933Z,23.80
2022-09-06T20:36:04.333Z,23.84
2022-09-06T20:38:32.347Z,23.83
2022-09-06T20:41:07.565Z,23.80
2022-09-06T20:43:36.475Z,23.75
2022-09-06T20:46:14.393Z,23.73
2022-09-06T20:48:44.955Z,23.69
2022-09-06T20:51:15.500Z,23.63
2022-09-06T20:53:42.554Z,23.60
2022-09-06T20:56:17.245Z,23.52
2022-09-06T20:58:57.404Z,23.43
2022-09-06T21:01:25.696Z,23.25
2022-09-06T21:03:54.553Z,23.22
2022-09-06T21:06:22.465Z,23.15
2022-09-06T21:08:49.699Z,23.08
2022-09-06T21:11:16.588Z,23.04
2022-09-06T21:13:43.666Z,22.97
2022-09-06T21:16:10.326Z,22.90
2022-09-06T21:18:36.792Z,22.94
2022-09-06T21:21:06.636Z,22.90
2022-09-06T21:23:35.054Z,22.80
2022-09-06T21:26:06.969Z,22.69
2022-09-06T21:28:35.705Z,22.61
2022-09-06T21:31:05.893Z,22.55
2022-09-06T21:33:33.165Z,22.52
2022-09-06T21:36:06.852Z,22.45
2022-09-06T21:38:34.760Z,22.40
2022-09-06T21:41:01.906Z,22.36
2022-09-06T21:43:28.466Z,22.24
2022-09-06T21:45:54.997Z,22.19
2022-09-06T21:48:21.494Z,22.22
2022-09-06T21:50:48.367Z,22.15
2022-09-06T21:53:15.393Z,22.04
2022-09-06T21:55:42.033Z,21.96
2022-09-06T21:58:08.717Z,21.92
2022-09-06T22:00:35.532Z,21.93
2022-09-06T22:03:03.105Z,21.94
2022-09-06T22:05:29.524Z,21.92
2022-09-06T22:07:55.921Z,21.94
2022-09-06T22:10:25.988Z,21.84
2022-09-06T22:12:52.922Z,21.97
2022-09-06T22:15:21.491Z,21.91
2022-09-06T22:17:48.620Z,22.00
2022-09-06T22:20:15.130Z,22.01
2022-09-06T22:22:43.885Z,22.05
2022-09-06T22:25:10.232Z,22.08
2022-09-06T22:27:37.199Z,22.12
2022-09-06T22:30:04.373Z,22.01
2022-09-06T22:32:30.773Z,22.15
2022-09-06T22:34:57.136Z,22.16
2022-09-06T22:37:23.490Z,22.13
2022-09-06T22:39:50.621Z,22.07
2022-09-06T22:42:17.056Z,22.12
2022-09-06T22:44:43.442Z,22.10
2022-09-06T22:47:09.858Z,22.09
2022-09-06T22:49:36.241Z,22.05
2022-09-06T22:52:02.705Z,22.04
2022-09-06T22:54:29.054Z,22.01
2022-09-06T22:56:55.492Z,21.99
2022-09-06T22:59:21.899Z,21.98
2022-09-06T23:01:48.244Z,21.94
2022-09-06T23:04:14.620Z,21.94
2022-09-06T23:06:41.106Z,21.93
2022-09-06T23:09:07.509Z,21.80
2022-09-06T23:11:33.990Z,21.83
2022-09-06T23:14:00.701Z,21.77
2022-09-06T23:16:28.031Z,21.72
2022-09-06T23:18:55.068Z,21.66
2022-09-06T23:21:24.709Z,21.62
2022-09-06T23:23:52.667Z,21.54
2022-09-06T23:26:22.896Z,21.56
2022-09-06T23:28:56.734Z,21.62
2022-09-06T23:31:28.555Z,21.59
2022-09-06T23:33:57.142Z,21.11
2022-09-06T23:36:24.247Z,20.31
2022-09-06T23:38:50.753Z,19.59
2022-09-06T23:41:17.620Z,18.99
2022-09-06T23:43:44.686Z,18.61
2022-09-06T23:46:13.232Z,18.39
2022-09-06T23:48:39.660Z,18.29
2022-09-06T23:51:06.835Z,18.00
2022-09-06T23:53:33.334Z,18.00
2022-09-06T23:55:59.734Z,17.90
2022-09-06T23:58:26.533Z,17.81
